createdAt,value
2019-05-21T00:00:57.386Z,94719.46
2019-05-21T00:03:23.405Z,94722.62
2019-05-21T00:05:49.399Z,94737.28
2019-05-21T00:08:15.418Z,94731.03
2019-05-21T00:10:41.436Z,94723.64
2019-05-21T00:13:07.436Z,94721.39
2019-05-21T00:15:33.750Z,94720.97
2019-05-21T00:17:59.741Z,94727.13
2019-05-21T00:20:25.758Z,94725.50
2019-05-21T00:22:51.760Z,94724.05
2019-05-21T00:25:17.779Z,94724.17
2019-05-21T00:27:43.774Z,94724.97
2019-05-21T00:30:09.803Z,94730.71
2019-05-21T00:32:35.792Z,94733.08
2019-05-21T00:35:01.793Z,94736.58
2019-05-21T00:37:27.807Z,94740.16
2019-05-21T00:39:53.803Z,94760.55
2019-05-21T00:42:19.832Z,94755.73
2019-05-21T00:44:45.830Z,94751.82
2019-05-21T00:47:11.846Z,94754.90
2019-05-21T00:49:37.842Z,94749.57
2019-05-21T00:52:09.003Z,94741.70
2019-05-21T00:54:29.876Z,94738.50
2019-05-21T00:56:55.875Z,94739.45
2019-05-21T00:59:21.891Z,94737.70
2019-05-21T01:01:47.890Z,94746.11
2019-05-21T01:04:13.885Z,94747.95
2019-05-21T01:06:39.905Z,94747.53
2019-05-21T01:09:05.905Z,94763.10
2019-05-21T01:11:31.928Z,94754.70
2019-05-21T01:13:57.940Z,94760.44
2019-05-21T01:16:23.934Z,94735.13
2019-05-21T01:18:49.958Z,94756.86
2019-05-21T01:21:15.958Z,94753.36
2019-05-21T01:23:41.965Z,94740.99
2019-05-21T01:26:07.959Z,94721.52
2019-05-21T01:28:33.975Z,94735.34
2019-05-21T01:30:59.974Z,94744.25
2019-05-21T01:33:25.978Z,94734.55
2019-05-21T01:35:51.992Z,94719.36
2019-05-21T01:38:18.081Z,94744.67
2019-05-21T01:40:44.013Z,94723.89
2019-05-21T01:43:09.998Z,94708.29
2019-05-21T01:45:36.024Z,94715.07
2019-05-21T01:48:02.020Z,94696.02
2019-05-21T01:50:28.046Z,94701.34
2019-05-21T01:52:54.055Z,94705.33
2019-05-21T01:55:20.057Z,94720.40
2019-05-21T01:57:46.081Z,94720.11
2019-05-21T02:00:12.084Z,94722.23
2019-05-21T02:02:38.101Z,94715.16
2019-05-21T02:05:04.091Z,94712.11
2019-05-21T02:07:30.115Z,94715.70
2019-05-21T02:09:56.139Z,94718.36
2019-05-21T02:12:22.119Z,94740.59
2019-05-21T02:14:48.163Z,94743.75
2019-05-21T02:17:14.171Z,94723.69
2019-05-21T02:19:40.176Z,94725.94
2019-05-21T02:22:06.189Z,94731.77
2019-05-21T02:24:32.178Z,94721.53
2019-05-21T02:26:58.210Z,94725.11
2019-05-21T02:29:24.239Z,94736.69
2019-05-21T02:31:50.238Z,94726.15
2019-05-21T02:34:16.256Z,94731.36
2019-05-21T02:36:42.243Z,94734.55
2019-05-21T02:39:08.308Z,94747.05
2019-05-21T02:41:34.303Z,94724.41
2019-05-21T02:44:00.320Z,94737.72
2019-05-21T02:46:26.324Z,94746.62
2019-05-21T02:48:52.354Z,94759.53
2019-05-21T02:51:18.356Z,94760.48
2019-05-21T02:53:44.350Z,94778.18
2019-05-21T02:56:10.377Z,94781.80
2019-05-21T02:58:36.368Z,94779.52
2019-05-21T03:01:02.368Z,94772.47
2019-05-21T03:03:28.376Z,94771.64
2019-05-21T03:06:10.384Z,94764.06
2019-05-21T03:08:20.395Z,94776.97
2019-05-21T03:10:46.420Z,94776.55
2019-05-21T03:13:12.419Z,94781.05
2019-05-21T03:15:38.450Z,94782.30
2019-05-21T03:18:04.506Z,94780.55
2019-05-21T03:20:30.515Z,94787.33
2019-05-21T03:22:56.508Z,94787.71
2019-05-21T03:25:22.527Z,94787.33
2019-05-21T03:27:48.527Z,94783.72
2019-05-21T03:30:14.520Z,94781.59
2019-05-21T03:32:40.538Z,94788.25
2019-05-21T03:35:06.536Z,94793.58
2019-05-21T03:37:32.562Z,94791.83
2019-05-21T03:39:58.574Z,94797.66
2019-05-21T03:42:24.627Z,94805.65
2019-05-21T03:44:59.666Z,94803.52
2019-05-21T03:47:16.690Z,94809.23
2019-05-21T03:49:42.692Z,94814.56
2019-05-21T03:52:08.718Z,94810.69
2019-05-21T03:54:34.702Z,94808.44
2019-05-21T03:57:00.733Z,94809.77
2019-05-21T03:59:26.794Z,94811.09
2019-05-21T04:01:52.810Z,94806.98
2019-05-21T04:04:18.801Z,94819.38
2019-05-21T04:06:52.019Z,94820.71
2019-05-21T04:09:10.841Z,94816.42
2019-05-21T04:11:36.837Z,94822.55
2019-05-21T04:14:02.862Z,94824.30
2019-05-21T04:16:28.857Z,94818.97
2019-05-21T04:18:55.034Z,94817.64
2019-05-21T04:21:21.030Z,94817.55
2019-05-21T04:23:47.056Z,94817.96
2019-05-21T04:26:13.053Z,94817.55
2019-05-21T04:28:39.067Z,94827.28
2019-05-21T04:31:05.090Z,94826.34
2019-05-21T04:33:31.089Z,94820.09
2019-05-21T04:35:57.150Z,94821.55
2019-05-21T04:38:23.182Z,94832.61
2019-05-21T04:40:49.236Z,94831.28
2019-05-21T04:43:15.222Z,94829.95
2019-05-21T04:45:41.289Z,94823.67
2019-05-21T04:48:07.301Z,94826.87
2019-05-21T04:50:33.296Z,94828.61
2019-05-21T04:52:59.384Z,94830.45
2019-05-21T04:55:25.485Z,94829.12
2019-05-21T04:57:51.496Z,94830.25
2019-05-21T05:00:17.507Z,94832.61
2019-05-21T05:02:43.514Z,94832.20
2019-05-21T05:05:09.534Z,94835.66
2019-05-21T05:07:35.555Z,94831.66
2019-05-21T05:10:01.682Z,94838.65
2019-05-21T05:12:27.748Z,94837.81
2019-05-21T05:14:53.748Z,94844.39
2019-05-21T05:17:19.797Z,94839.06
2019-05-21T05:19:45.836Z,94835.45
2019-05-21T05:22:11.891Z,94833.61
2019-05-21T05:24:37.887Z,94833.91
2019-05-21T05:27:03.895Z,94827.04
2019-05-21T05:29:29.912Z,94822.75
2019-05-21T05:31:55.912Z,94828.38
2019-05-21T05:34:21.983Z,94827.04
2019-05-21T05:36:47.989Z,94830.53
2019-05-21T05:39:14.147Z,94833.61
2019-05-21T05:41:40.150Z,94834.11
2019-05-21T05:44:06.210Z,94837.19
2019-05-21T05:46:32.244Z,94834.53
2019-05-21T05:49:01.578Z,94841.09
2019-05-21T05:51:24.361Z,94835.36
2019-05-21T05:53:50.368Z,94838.81
2019-05-21T05:56:16.396Z,94844.56
2019-05-21T05:58:42.394Z,94843.97
2019-05-21T06:01:08.427Z,94844.77
2019-05-21T06:03:34.656Z,94843.34
2019-05-21T06:06:01.494Z,94849.47
2019-05-21T06:08:27.525Z,94845.59
2019-05-21T06:10:53.524Z,94841.19
2019-05-21T06:13:19.544Z,94840.15
2019-05-21T06:15:45.564Z,94838.81
2019-05-21T06:18:11.579Z,94834.44
2019-05-21T06:20:38.174Z,94836.06
2019-05-21T06:23:04.116Z,94845.39
2019-05-21T06:25:31.230Z,94840.89
2019-05-21T06:27:57.256Z,94843.44
2019-05-21T06:30:23.258Z,94832.78
2019-05-21T06:32:49.264Z,94839.14
2019-05-21T06:35:15.266Z,94829.28
2019-05-21T06:37:41.296Z,94837.69
2019-05-21T06:40:07.328Z,94835.03
2019-05-21T06:42:33.369Z,94833.61
2019-05-21T06:44:59.447Z,94835.86
2019-05-21T06:47:25.507Z,94840.77
2019-05-21T06:49:51.512Z,94828.99
2019-05-21T06:52:17.504Z,94835.44
2019-05-21T06:54:43.565Z,94830.11
2019-05-21T06:57:09.563Z,94831.45
2019-05-21T06:59:35.582Z,94828.28
2019-05-21T07:02:01.609Z,94826.53
2019-05-21T07:04:27.597Z,94829.70
2019-05-21T07:06:53.690Z,94828.70
2019-05-21T07:09:19.693Z,94828.28
2019-05-21T07:11:45.801Z,94824.78
2019-05-21T07:14:11.724Z,94820.79
2019-05-21T07:16:37.737Z,94819.96
2019-05-21T07:19:03.750Z,94818.54
2019-05-21T07:21:29.761Z,94817.71
2019-05-21T07:23:55.783Z,94813.62
2019-05-21T07:26:21.781Z,94813.62
2019-05-21T07:28:47.809Z,94811.37
2019-05-21T07:31:17.250Z,94808.17
2019-05-21T07:33:39.904Z,94806.34
2019-05-21T07:36:05.929Z,94807.77
2019-05-21T07:38:31.931Z,94805.52
2019-05-21T07:40:58.040Z,94806.43
2019-05-21T07:43:24.022Z,94802.64
2019-05-21T07:45:50.013Z,94802.55
2019-05-21T07:48:16.034Z,94801.64
2019-05-21T07:50:42.034Z,94804.80
2019-05-21T07:53:08.056Z,94811.47
2019-05-21T07:55:34.106Z,94803.48
2019-05-21T07:58:00.070Z,94802.97
2019-05-21T08:00:26.067Z,94802.64
2019-05-21T08:02:52.069Z,94796.52
2019-05-21T08:05:18.128Z,94802.77
2019-05-21T08:07:44.126Z,94798.77
2019-05-21T08:10:10.174Z,94796.52
2019-05-21T08:12:39.440Z,94796.11
2019-05-21T08:15:02.306Z,94796.11
2019-05-21T08:17:28.319Z,94797.02
2019-05-21T08:19:54.324Z,94801.52
2019-05-21T08:22:20.319Z,94798.06
2019-05-21T08:24:46.346Z,94802.06
2019-05-21T08:27:12.349Z,94802.86
2019-05-21T08:29:38.367Z,94803.39
2019-05-21T08:32:04.362Z,94801.23
2019-05-21T08:34:30.384Z,94803.89
2019-05-21T08:36:56.488Z,94798.69
2019-05-21T08:39:28.777Z,94796.94
2019-05-21T08:41:48.549Z,94788.53
2019-05-21T08:44:14.549Z,94797.86
2019-05-21T08:46:40.568Z,94797.03
2019-05-21T08:49:06.574Z,94786.38
2019-05-21T08:51:32.576Z,94787.30
2019-05-21T08:53:58.627Z,94785.58
2019-05-21T08:56:24.602Z,94786.08
2019-05-21T08:58:50.613Z,94786.58
2019-05-21T09:01:16.645Z,94783.12
2019-05-21T09:03:42.866Z,94781.67
2019-05-21T09:06:08.898Z,94784.84
2019-05-21T09:08:34.893Z,94780.84
2019-05-21T09:11:00.921Z,94783.12
2019-05-21T09:13:26.965Z,94780.46
2019-05-21T09:15:53.093Z,94780.46
2019-05-21T09:18:19.099Z,94778.50
2019-05-21T09:20:45.097Z,94776.76
2019-05-21T09:23:11.124Z,94779.84
2019-05-21T09:25:37.185Z,94778.50
2019-05-21T09:28:03.221Z,94783.00
2019-05-21T09:30:29.243Z,94784.34
2019-05-21T09:32:56.310Z,94779.42
2019-05-21T09:35:22.287Z,94781.67
2019-05-21T09:37:48.298Z,94770.60
2019-05-21T09:40:14.326Z,94773.69
2019-05-21T09:42:40.327Z,94776.76
2019-05-21T09:45:06.346Z,94769.27
2019-05-21T09:47:32.341Z,94769.27
2019-05-21T09:49:58.382Z,94779.42
2019-05-21T09:52:24.386Z,94769.81
2019-05-21T09:54:50.543Z,94765.69
2019-05-21T09:57:16.551Z,94761.70
2019-05-21T09:59:42.557Z,94759.95
2019-05-21T10:02:08.693Z,94749.30
2019-05-21T10:04:34.687Z,94755.45
2019-05-21T10:07:00.704Z,94747.05
2019-05-21T10:09:26.723Z,94752.66
2019-05-21T10:11:52.741Z,94747.34
2019-05-21T10:14:19.084Z,94740.59
2019-05-21T10:16:45.113Z,94732.19
2019-05-21T10:19:11.109Z,94728.89
2019-05-21T10:21:37.133Z,94727.77
2019-05-21T10:24:03.385Z,94723.56
2019-05-21T10:26:29.402Z,94729.31
2019-05-21T10:28:55.398Z,94729.22
2019-05-21T10:31:21.481Z,94727.56
2019-05-21T10:33:47.567Z,94731.34
2019-05-21T10:36:13.517Z,94719.89
2019-05-21T10:38:39.529Z,94720.28
2019-05-21T10:41:05.589Z,94713.41
2019-05-21T10:43:31.646Z,94719.77
2019-05-21T10:45:57.646Z,94723.47
2019-05-21T10:48:23.672Z,94712.69
2019-05-21T10:50:49.710Z,94719.86
2019-05-21T10:53:15.831Z,94714.44
2019-05-21T10:55:41.833Z,94708.60
2019-05-21T10:58:07.833Z,94710.31
2019-05-21T11:00:33.865Z,94719.26
2019-05-21T11:02:59.872Z,94708.60
2019-05-21T11:05:28.845Z,94709.81
2019-05-21T11:07:51.886Z,94713.40
2019-05-21T11:10:17.996Z,94716.06
2019-05-21T11:12:44.001Z,94714.44
2019-05-21T11:15:10.011Z,94715.77
2019-05-21T11:17:50.076Z,94715.35
2019-05-21T11:20:04.237Z,94715.77
2019-05-21T11:22:30.266Z,94724.17
2019-05-21T11:24:56.264Z,94735.63
2019-05-21T11:27:22.271Z,94740.57
2019-05-21T11:29:48.288Z,94749.57
2019-05-21T11:32:14.305Z,94752.23
2019-05-21T11:34:40.310Z,94757.15
2019-05-21T11:37:06.501Z,94771.30
2019-05-21T11:39:32.444Z,94778.08
2019-05-21T11:41:58.670Z,94788.32
2019-05-21T11:44:24.666Z,94798.06
2019-05-21T11:46:50.695Z,94793.53
2019-05-21T11:49:16.693Z,94803.89
2019-05-21T11:51:42.714Z,94800.19
2019-05-21T11:54:08.746Z,94802.44
2019-05-21T11:56:36.335Z,94809.92
2019-05-21T11:59:00.841Z,94805.52
2019-05-21T12:01:26.840Z,94813.92
2019-05-21T12:03:52.869Z,94809.52
2019-05-21T12:06:18.876Z,94803.77
2019-05-21T12:08:56.218Z,94807.67
2019-05-21T12:11:11.029Z,94813.09
2019-05-21T12:13:36.988Z,94810.96
2019-05-21T12:16:03.160Z,94808.80
2019-05-21T12:18:29.159Z,94816.38
2019-05-21T12:20:55.184Z,94814.95
2019-05-21T12:23:21.194Z,94814.95
2019-05-21T12:25:47.326Z,94815.17
2019-05-21T12:28:13.319Z,94810.13
2019-05-21T12:30:39.334Z,94802.64
2019-05-21T12:33:05.362Z,94807.59
2019-05-21T12:35:31.343Z,94803.98
2019-05-21T12:37:57.381Z,94800.81
2019-05-21T12:40:23.364Z,94802.14
2019-05-21T12:42:49.387Z,94803.48
2019-05-21T12:45:15.459Z,94804.18
2019-05-21T12:47:41.543Z,94801.11
2019-05-21T12:50:07.555Z,94798.56
2019-05-21T12:52:33.988Z,94802.55
2019-05-21T12:54:59.561Z,94800.31
2019-05-21T12:57:25.580Z,94788.32
2019-05-21T12:59:51.609Z,94789.66
2019-05-21T13:02:17.643Z,94791.78
2019-05-21T13:04:43.632Z,94788.82
2019-05-21T13:07:09.662Z,94789.66
2019-05-21T13:09:35.762Z,94788.32
2019-05-21T13:12:01.784Z,94793.23
2019-05-21T13:14:27.800Z,94794.98
2019-05-21T13:16:53.798Z,94788.32
2019-05-21T13:19:19.975Z,94796.31
2019-05-21T13:21:46.053Z,94792.94
2019-05-21T13:24:12.051Z,94809.22
2019-05-21T13:26:38.061Z,94815.17
2019-05-21T13:29:04.052Z,94815.58
2019-05-21T13:31:30.092Z,94814.63
2019-05-21T13:33:56.145Z,94827.16
2019-05-21T13:36:22.126Z,94820.50
2019-05-21T13:38:48.164Z,94801.44
2019-05-21T13:41:14.203Z,94786.78
2019-05-21T13:43:40.272Z,94788.63
2019-05-21T13:46:06.237Z,94776.95
2019-05-21T13:48:32.255Z,94777.88
2019-05-21T13:50:58.287Z,94773.05
2019-05-21T13:53:24.311Z,94768.97
2019-05-21T13:55:50.372Z,94772.13
2019-05-21T13:58:16.384Z,94773.55
2019-05-21T14:00:42.412Z,94778.50
2019-05-21T14:03:08.526Z,94772.22
2019-05-21T14:05:34.519Z,94785.54
2019-05-21T14:08:00.548Z,94793.95
2019-05-21T14:10:26.548Z,94805.52
2019-05-21T14:12:52.563Z,94779.71
2019-05-21T14:15:18.580Z,94791.28
2019-05-21T14:17:44.583Z,94784.62
2019-05-21T14:20:10.627Z,94781.95
2019-05-21T14:22:36.785Z,94776.34
2019-05-21T14:25:04.878Z,94787.49
2019-05-21T14:27:43.917Z,94786.98
2019-05-21T14:29:56.826Z,94782.28
2019-05-21T14:32:22.852Z,94782.66
2019-05-21T14:35:00.725Z,94775.21
2019-05-21T14:37:14.890Z,94779.20
2019-05-21T14:39:40.895Z,94782.28
2019-05-21T14:42:06.938Z,94792.41
2019-05-21T14:44:32.931Z,94785.24
2019-05-21T14:46:59.088Z,94779.79
2019-05-21T14:49:25.048Z,94778.25
2019-05-21T14:51:51.152Z,94783.58
2019-05-21T14:54:26.055Z,94779.08
2019-05-21T14:56:47.279Z,94776.41
2019-05-21T14:59:10.220Z,94781.53
2019-05-21T15:01:36.222Z,94772.83
2019-05-21T15:04:02.390Z,94780.32
2019-05-21T15:06:28.314Z,94778.16
2019-05-21T15:08:54.351Z,94781.23
2019-05-21T15:11:20.370Z,94775.50
2019-05-21T15:13:46.389Z,94769.75
2019-05-21T15:16:12.412Z,94774.16
2019-05-21T15:18:38.461Z,94771.50
2019-05-21T15:21:05.005Z,94765.67
2019-05-21T15:23:30.958Z,94764.55
2019-05-21T15:25:56.986Z,94775.70
2019-05-21T15:28:23.017Z,94771.92
2019-05-21T15:30:49.040Z,94775.50
2019-05-21T15:33:15.694Z,94781.75
2019-05-21T15:35:44.837Z,94772.55
2019-05-21T15:38:11.129Z,94784.12
2019-05-21T15:40:37.146Z,94795.28
2019-05-21T15:43:03.175Z,94797.14
2019-05-21T15:45:29.167Z,94802.47
2019-05-21T15:47:55.170Z,94808.72
2019-05-21T15:50:21.273Z,94815.47
2019-05-21T15:52:47.295Z,94810.84
2019-05-21T15:55:13.290Z,94798.56
2019-05-21T15:57:39.316Z,94800.81
2019-05-21T16:00:05.311Z,94799.07
2019-05-21T16:02:31.392Z,94805.02
2019-05-21T16:04:57.380Z,94819.17
2019-05-21T16:07:23.404Z,94822.88
2019-05-21T16:09:49.442Z,94827.78
2019-05-21T16:12:15.500Z,94828.28
2019-05-21T16:14:49.110Z,94832.78
2019-05-21T16:17:22.002Z,94823.46
2019-05-21T16:19:48.993Z,94817.42
2019-05-21T16:22:15.372Z,94823.17
2019-05-21T16:24:46.918Z,94815.30
2019-05-21T16:27:13.706Z,94811.30
2019-05-21T16:29:39.982Z,94812.02
2019-05-21T16:32:06.407Z,94816.63
2019-05-21T16:34:32.633Z,94821.55
2019-05-21T16:36:58.796Z,94816.22
2019-05-21T16:39:26.657Z,94823.67
2019-05-21T16:41:53.981Z,94822.88
2019-05-21T16:44:20.142Z,94824.70
2019-05-21T16:46:46.982Z,94827.16
2019-05-21T16:49:13.843Z,94826.25
2019-05-21T16:51:45.498Z,94831.58
2019-05-21T16:54:11.513Z,94834.23
2019-05-21T16:56:37.526Z,94839.86
2019-05-21T16:59:10.576Z,94837.61
2019-05-21T17:01:36.751Z,94841.60
2019-05-21T17:04:04.291Z,94842.11
2019-05-21T17:06:33.004Z,94847.84
2019-05-21T17:08:59.026Z,94842.94
2019-05-21T17:11:25.310Z,94845.89
2019-05-21T17:13:53.421Z,94848.17
2019-05-21T17:16:20.237Z,94851.13
2019-05-21T17:18:46.687Z,94849.51
2019-05-21T17:21:12.721Z,94847.14
2019-05-21T17:23:38.864Z,94850.63
2019-05-21T17:26:05.148Z,94851.64
2019-05-21T17:28:31.160Z,94853.38
2019-05-21T17:30:57.495Z,94847.14
2019-05-21T17:33:23.497Z,94845.80
2019-05-21T17:35:49.968Z,94848.97
2019-05-21T17:38:16.753Z,94846.72
2019-05-21T17:40:43.557Z,94843.77
2019-05-21T17:43:09.745Z,94845.39
2019-05-21T17:45:36.067Z,94840.19
2019-05-21T17:48:02.696Z,94842.84
2019-05-21T17:50:29.363Z,94854.42
2019-05-21T17:52:55.601Z,94845.52
2019-05-21T17:55:21.692Z,94844.89
2019-05-21T18:05:35.254Z,94852.47
2019-05-21T18:08:01.585Z,94846.72
2019-05-21T18:10:28.340Z,94847.94
2019-05-21T18:12:58.679Z,94848.34
2019-05-21T18:15:25.610Z,94853.17
2019-05-21T18:17:51.651Z,94853.67
2019-05-21T18:20:17.667Z,94851.84
2019-05-21T18:22:45.542Z,94859.42
2019-05-21T18:25:11.580Z,94861.05
2019-05-21T18:27:38.347Z,94862.79
2019-05-21T18:30:05.171Z,94867.70
2019-05-21T18:32:35.912Z,94865.88
2019-05-21T18:35:02.040Z,94876.73
2019-05-21T18:37:28.046Z,94870.78
2019-05-21T18:39:54.052Z,94880.52
2019-05-21T18:42:22.573Z,94887.68
2019-05-21T18:44:46.164Z,94889.64
2019-05-21T18:47:12.117Z,94893.75
2019-05-21T18:49:38.171Z,94896.50
2019-05-21T18:52:04.157Z,94899.29
2019-05-21T18:54:30.164Z,94909.53
2019-05-21T18:56:56.252Z,94910.53
2019-05-21T18:59:22.258Z,94911.87
2019-05-21T19:01:48.310Z,94916.40
2019-05-21T19:04:14.314Z,94921.19
2019-05-21T19:06:40.451Z,94911.45
2019-05-21T19:09:06.757Z,94920.78
2019-05-21T19:11:32.846Z,94916.40
2019-05-21T19:13:58.815Z,94919.98
2019-05-21T19:16:24.826Z,94927.56
2019-05-21T19:18:50.842Z,94933.92
2019-05-21T19:21:16.874Z,94939.34
2019-05-21T19:23:42.902Z,94942.00
2019-05-21T19:26:09.064Z,94944.25
2019-05-21T19:28:35.118Z,94939.13
2019-05-21T19:31:01.185Z,94947.53
2019-05-21T19:33:27.218Z,94944.99
2019-05-21T19:35:53.239Z,94949.98
2019-05-21T19:38:19.305Z,94949.58
2019-05-21T19:40:45.351Z,94956.65
2019-05-21T19:43:11.392Z,94951.44
2019-05-21T19:45:37.395Z,94957.27
2019-05-21T19:48:03.461Z,94965.77
2019-05-21T19:50:29.811Z,94965.38
2019-05-21T19:52:55.807Z,94964.97
2019-05-21T19:55:21.858Z,94964.64
2019-05-21T19:57:47.869Z,94959.84
2019-05-21T20:00:13.901Z,94955.02
2019-05-21T20:02:39.935Z,94956.35
2019-05-21T20:05:05.988Z,94955.94
2019-05-21T20:07:32.000Z,94961.27
2019-05-21T20:09:58.136Z,94960.05
2019-05-21T20:12:24.475Z,94960.84
2019-05-21T20:14:50.509Z,94961.47
2019-05-21T20:17:17.067Z,94964.13
2019-05-21T20:19:42.611Z,94963.34
2019-05-21T20:22:08.640Z,94967.33
2019-05-21T20:24:34.685Z,94968.75
2019-05-21T20:27:00.798Z,94964.75
2019-05-21T20:29:26.812Z,94956.88
2019-05-21T20:31:52.829Z,94960.88
2019-05-21T20:34:18.878Z,94959.12
2019-05-21T20:36:44.884Z,94960.55
2019-05-21T20:39:10.957Z,94967.62
2019-05-21T20:41:37.053Z,94961.08
2019-05-21T20:44:03.081Z,94967.74
2019-05-21T20:46:29.112Z,94975.81
2019-05-21T20:48:55.123Z,94966.08
2019-05-21T20:51:21.132Z,94964.45
2019-05-21T20:53:47.175Z,94967.95
2019-05-21T20:56:13.174Z,94965.28
2019-05-21T20:58:39.213Z,94967.12
2019-05-21T21:01:05.214Z,94963.13
2019-05-21T21:03:31.231Z,94964.45
2019-05-21T21:05:57.234Z,94964.45
2019-05-21T21:08:27.371Z,94968.45
2019-05-21T21:10:49.337Z,94965.88
2019-05-21T21:13:15.324Z,94962.41
2019-05-21T21:15:41.346Z,94966.81
2019-05-21T21:18:07.357Z,94971.73
2019-05-21T21:20:33.370Z,94970.07
2019-05-21T21:22:59.362Z,94971.31
2019-05-21T21:25:25.378Z,94968.66
2019-05-21T21:27:51.386Z,94973.48
2019-05-21T21:30:17.385Z,94965.58
2019-05-21T21:32:43.404Z,94960.75
2019-05-21T21:35:09.431Z,94962.61
2019-05-21T21:37:35.426Z,94962.20
2019-05-21T21:40:01.551Z,94968.44
2019-05-21T21:42:27.454Z,94964.45
2019-05-21T21:44:53.455Z,94959.12
2019-05-21T21:47:19.467Z,94968.44
2019-05-21T21:49:45.541Z,94968.94
2019-05-21T21:52:11.551Z,94968.53
2019-05-21T21:54:37.566Z,94974.80
2019-05-21T21:57:03.554Z,94976.14
2019-05-21T21:59:29.557Z,94981.46
2019-05-21T22:01:55.764Z,94977.55
2019-05-21T22:04:24.696Z,94972.73
2019-05-21T22:06:50.796Z,94985.95
2019-05-21T22:09:16.750Z,94985.13
2019-05-21T22:11:42.794Z,94986.88
2019-05-21T22:14:08.834Z,94989.66
2019-05-21T22:16:34.879Z,94992.20
2019-05-21T22:19:00.936Z,94991.38
2019-05-21T22:21:26.968Z,94991.91
2019-05-21T22:23:52.982Z,94989.74
2019-05-21T22:26:19.087Z,94990.57
2019-05-21T22:28:45.126Z,94985.33
2019-05-21T22:31:11.230Z,94984.91
2019-05-21T22:33:37.261Z,94978.26
2019-05-21T22:36:03.401Z,94975.72
2019-05-21T22:38:32.229Z,94972.22
2019-05-21T22:40:55.535Z,94973.05
2019-05-21T22:43:21.579Z,94974.89
2019-05-21T22:45:47.615Z,94980.74
2019-05-21T22:48:13.621Z,94976.33
2019-05-21T22:50:39.671Z,94974.47
2019-05-21T22:53:05.672Z,94973.14
2019-05-21T22:55:31.687Z,94974.89
2019-05-21T22:57:57.717Z,94973.26
2019-05-21T23:00:23.732Z,94976.22
2019-05-21T23:02:49.741Z,94973.26
2019-05-21T23:05:15.805Z,94969.77
2019-05-21T23:07:41.794Z,94971.92
2019-05-21T23:10:07.821Z,94977.25
2019-05-21T23:12:33.830Z,94970.17
2019-05-21T23:14:59.843Z,94972.84
2019-05-21T23:17:25.858Z,94968.02
2019-05-21T23:19:51.903Z,94968.96
2019-05-21T23:22:17.953Z,94968.13
2019-05-21T23:24:43.970Z,94973.45
2019-05-21T23:27:09.982Z,94975.30
2019-05-21T23:29:36.026Z,94968.64
2019-05-21T23:32:02.047Z,94969.55
2019-05-21T23:34:28.065Z,94970.88
2019-05-21T23:36:54.145Z,94963.02
2019-05-21T23:39:20.227Z,94973.55
2019-05-21T23:41:46.242Z,94968.75
2019-05-21T23:44:12.262Z,94971.92
2019-05-21T23:46:38.276Z,94977.24
2019-05-21T23:49:04.307Z,94978.16
2019-05-21T23:51:30.366Z,94968.42
2019-05-21T23:53:56.477Z,94979.41
2019-05-21T23:56:22.508Z,94978.98
2019-05-21T23:58:48.541Z,94977.66
